Castanhal, Brazil
Current Conditions -  °F | °C
As of 2:00 AM on Saturday 22 Nov 2014 (Local Time) from SBBE Reporting Station
Clear Clear  
Wind Chill: 77°   Ceiling: Unl
Heat Index: 78°   Visibility: 6mi
Dew Point: 72°   Wind: 6mph
Humidity: 83%   Direction: 60°ENE
Pressure: 29.83"   Gusts: NA
Location:  1.29°S, 47.93°W
Report Text: SBBE 220500Z 06005KT CAVOK 25/22 Q1010
Loading
Personal Weather Stations






























Interactive Weather Map New forecast layout! Learn more

10-Day Weather Forecast

Advertisements
Track Severe Weather on mobile